Time;durP1;ratioP1;P1;durP2;ratioP2;P2;SDS_P1;SDS_P2;PMS_P1;PMS_P2;Temp;Humidity;BMP_temperature;BMP_pressure;BME280_temperature;BME280_humidity;BME280_pressure;Samples;Min_cycle;Max_cycle;Signal;HPM_P1;HPM_P2
2022/09/25 00:00:50;;;;;;;;;;;;;;;13.62;100.00;97574.25;5075524;28;19924;-87
2022/09/25 00:03:18;;;;;;;;;;;;;;;13.61;100.00;97561.94;5050530;28;19943;-84
2022/09/25 00:05:45;;;;;;;;;;;;;;;13.56;100.00;97563.88;5060460;28;20031;-85
2022/09/25 00:08:12;;;;;;;;;;;;;;;13.62;100.00;97563.53;5058338;28;20027;-87
2022/09/25 00:10:40;;;;;;;;;;;;;;;13.63;100.00;97559.75;5053598;28;19943;-87
2022/09/25 00:13:06;;;;;;;;;;;;;;;13.69;100.00;97563.97;5073203;28;20027;-86
2022/09/25 00:15:32;;;;;;;;;;;;;;;13.77;100.00;97568.66;5069790;28;20037;-84
2022/09/25 00:17:59;;;;;;;;;;;;;;;13.83;100.00;97566.72;5061940;28;21806;-85
2022/09/25 00:20:25;;;;;;;;;;;;;;;13.89;100.00;97563.66;5061102;28;19928;-83
2022/09/25 00:22:53;;;;;;;;;;;;;;;13.82;100.00;97562.44;5073171;28;19962;-84
2022/09/25 00:25:19;;;;;;;;;;;;;;;13.71;100.00;97561.78;5069755;28;20604;-84
2022/09/25 00:27:47;;;;;;;;;;;;;;;13.76;100.00;97561.72;5071414;28;19928;-84
2022/09/25 00:30:14;;;;;;;;;;;;;;;13.79;100.00;97558.44;5047282;28;19932;-83
2022/09/25 00:32:40;;;;;;;;;;;;;;;13.68;100.00;97551.63;5077922;28;19931;-84
2022/09/25 00:35:07;;;;;;;;;;;;;;;13.68;100.00;97546.25;5052964;28;20385;-85
2022/09/25 00:37:34;;;;;;;;;;;;;;;13.82;100.00;97549.00;5073422;28;20023;-85
2022/09/25 00:40:01;;;;;;;;;;;;;;;13.87;100.00;97549.72;5070193;28;19924;-86
2022/09/25 00:42:28;;;;;;;;;;;;;;;13.87;100.00;97541.69;5062355;28;19936;-86
2022/09/25 00:44:59;;;;;;;;;;;;;;;13.85;100.00;97548.44;5071417;28;20019;-86
2022/09/25 00:47:53;;;;;;;;;;;;;;;13.76;100.00;97540.25;5051967;28;19927;-86
2022/09/25 00:50:25;;;;;;;;;;;;;;;13.59;100.00;97542.63;5012105;28;19932;-86
2022/09/25 00:52:55;;;;;;;;;;;;;;;13.51;100.00;97536.06;5078067;28;19950;-87
2022/09/25 00:55:22;;;;;;;;;;;;;;;13.55;100.00;97533.59;5061572;28;19928;-87
2022/09/25 00:57:50;;;;;;;;;;;;;;;13.64;100.00;97529.16;5071889;28;19935;-86
2022/09/25 01:00:17;;;;;;;;;;;;;;;13.71;100.00;97534.94;5070492;28;20025;-85
2022/09/25 01:02:45;;;;;;;;;;;;;;;13.67;100.00;97533.16;5046490;28;19978;-94
2022/09/25 01:05:13;;;;;;;;;;;;;;;13.62;100.00;97535.88;5060686;28;20042;-88
2022/09/25 01:07:41;;;;;;;;;;;;;;;13.63;100.00;97527.56;5070143;28;19928;-88
2022/09/25 01:10:10;;;;;;;;;;;;;;;13.70;100.00;97528.00;5046660;28;19935;-87
2022/09/25 01:12:39;;;;;;;;;;;;;;;13.65;100.00;97520.00;5072221;28;19924;-87
2022/09/25 01:15:06;;;;;;;;;;;;;;;13.61;100.00;97524.38;5055497;28;20447;-85
2022/09/25 01:17:35;;;;;;;;;;;;;;;13.56;100.00;97521.75;5079952;28;20298;-86
2022/09/25 01:20:09;;;;;;;;;;;;;;;13.60;100.00;97521.97;5079247;28;20858;-86
2022/09/25 01:22:44;;;;;;;;;;;;;;;13.63;100.00;97519.50;5079712;28;20893;-85
2022/09/25 01:25:16;;;;;;;;;;;;;;;13.52;100.00;97520.75;5074861;28;19934;-86
2022/09/25 01:27:51;;;;;;;;;;;;;;;13.42;100.00;97521.72;5063734;28;19928;-85
2022/09/25 01:30:19;;;;;;;;;;;;;;;13.32;100.00;97519.16;5038230;28;20001;-86
2022/09/25 01:32:51;;;;;;;;;;;;;;;13.27;100.00;97519.25;5070437;28;19932;-85
2022/09/25 01:35:21;;;;;;;;;;;;;;;13.28;100.00;97526.19;5064656;28;19928;-85
2022/09/25 01:37:53;;;;;;;;;;;;;;;13.32;100.00;97527.22;5050254;28;20053;-83
2022/09/25 01:40:23;;;;;;;;;;;;;;;13.40;100.00;97525.78;5044060;28;20419;-84
2022/09/25 01:42:52;;;;;;;;;;;;;;;13.42;100.00;97520.91;5053290;28;19924;-83
2022/09/25 01:45:21;;;;;;;;;;;;;;;13.42;100.00;97515.53;5076208;28;19930;-85
2022/09/25 01:47:50;;;;;;;;;;;;;;;13.40;100.00;97520.41;5063639;28;20288;-83
2022/09/25 01:50:19;;;;;;;;;;;;;;;13.39;100.00;97505.41;5065503;28;19942;-84
2022/09/25 01:52:47;;;;;;;;;;;;;;;13.33;100.00;97512.72;5068416;28;19938;-83
2022/09/25 01:55:17;;;;;;;;;;;;;;;13.33;100.00;97512.72;5065307;28;19939;-84
2022/09/25 01:57:48;;;;;;;;;;;;;;;13.34;100.00;97508.94;5066058;28;19929;-84
2022/09/25 02:00:17;;;;;;;;;;;;;;;13.23;100.00;97514.72;5051753;28;20019;-84
2022/09/25 02:02:47;;;;;;;;;;;;;;;13.21;100.00;97509.69;5076300;28;20358;-84
2022/09/25 02:05:17;;;;;;;;;;;;;;;13.30;100.00;97512.50;5075526;28;19931;-84
2022/09/25 02:07:46;;;;;;;;;;;;;;;13.37;100.00;97512.91;5069777;28;19931;-83
2022/09/25 02:10:15;;;;;;;;;;;;;;;13.35;100.00;97510.53;5076858;28;20379;-83
2022/09/25 02:12:43;;;;;;;;;;;;;;;13.19;100.00;97508.34;5063642;28;19924;-83
2022/09/25 02:15:12;;;;;;;;;;;;;;;13.11;100.00;97507.13;5059338;28;19939;-83
2022/09/25 02:20:35;;;;;;;;;;;;;;;13.12;100.00;97508.69;5078605;28;19924;-83
2022/09/25 02:23:06;;;;;;;;;;;;;;;13.12;100.00;97505.25;5071376;28;19934;-83
2022/09/25 02:25:36;;;;;;;;;;;;;;;13.20;100.00;97507.28;5083005;28;19924;-83
2022/09/25 02:28:02;;;;;;;;;;;;;;;13.21;100.00;97500.84;5071195;28;19928;-83
2022/09/25 02:30:29;;;;;;;;;;;;;;;13.18;100.00;97514.81;5049929;28;19932;-84
2022/09/25 02:32:56;;;;;;;;;;;;;;;13.15;100.00;97507.34;5067439;28;20750;-83
2022/09/25 02:35:23;;;;;;;;;;;;;;;13.10;100.00;97502.03;5068322;28;20019;-83
2022/09/25 02:37:51;;;;;;;;;;;;;;;13.16;100.00;97499.00;5068318;28;20016;-83
2022/09/25 02:40:18;;;;;;;;;;;;;;;13.19;100.00;97498.44;5064484;28;19924;-84
2022/09/25 02:42:49;;;;;;;;;;;;;;;13.18;100.00;97504.09;5048145;28;19934;-85
2022/09/25 02:45:21;;;;;;;;;;;;;;;13.15;100.00;97513.47;5058200;28;20564;-82
2022/09/25 02:47:55;;;;;;;;;;;;;;;13.30;100.00;97507.13;5076272;28;19975;-84
2022/09/25 02:50:24;;;;;;;;;;;;;;;13.35;100.00;97505.16;5071558;28;20591;-84
2022/09/25 02:52:53;;;;;;;;;;;;;;;13.42;100.00;97504.81;5073292;28;20537;-83
2022/09/25 02:55:26;;;;;;;;;;;;;;;13.50;100.00;97502.25;5085622;28;19924;-83
2022/09/25 02:57:55;;;;;;;;;;;;;;;13.53;100.00;97514.28;5063827;28;19973;-84
2022/09/25 03:00:22;;;;;;;;;;;;;;;13.65;100.00;97516.56;5060085;28;19928;-85
2022/09/25 03:02:50;;;;;;;;;;;;;;;13.57;100.00;97507.25;5070902;28;20004;-86
2022/09/25 03:05:16;;;;;;;;;;;;;;;13.35;100.00;97512.41;5090150;28;19942;-83
2022/09/25 03:10:30;;;;;;;;;;;;;;;13.41;100.00;97509.38;5079182;28;20585;-82
2022/09/25 03:12:56;;;;;;;;;;;;;;;13.48;100.00;97499.09;5059442;28;19978;-83
2022/09/25 03:15:24;;;;;;;;;;;;;;;13.55;100.00;97503.28;5084451;28;19931;-84
2022/09/25 03:17:51;;;;;;;;;;;;;;;13.56;100.00;97500.28;5070701;28;19924;-84
2022/09/25 03:20:17;;;;;;;;;;;;;;;13.66;100.00;97504.72;5054198;28;19933;-83
2022/09/25 03:22:43;;;;;;;;;;;;;;;13.73;100.00;97505.94;5077100;28;20415;-83
2022/09/25 03:25:10;;;;;;;;;;;;;;;13.75;100.00;97494.91;5063221;28;19935;-83
2022/09/25 03:27:37;;;;;;;;;;;;;;;13.73;100.00;97505.94;5057121;28;20046;-84
2022/09/25 03:30:04;;;;;;;;;;;;;;;13.56;100.00;97504.84;5065709;28;19934;-85
2022/09/25 03:32:31;;;;;;;;;;;;;;;13.53;100.00;97511.63;5057060;28;19985;-84
2022/09/25 03:34:57;;;;;;;;;;;;;;;13.59;100.00;97509.66;5055822;28;20430;-82
2022/09/25 03:37:24;;;;;;;;;;;;;;;13.69;100.00;97512.97;5059502;28;19924;-83
2022/09/25 03:39:50;;;;;;;;;;;;;;;13.80;100.00;97508.25;5065695;28;19954;-85
2022/09/25 03:42:18;;;;;;;;;;;;;;;13.87;100.00;97503.28;5057296;28;20307;-84
2022/09/25 03:44:46;;;;;;;;;;;;;;;13.92;100.00;97509.41;5070244;28;19963;-83
2022/09/25 03:47:12;;;;;;;;;;;;;;;13.95;100.00;97498.06;5057234;28;19934;-83
2022/09/25 03:49:39;;;;;;;;;;;;;;;14.00;100.00;97506.03;5072698;28;19929;-84
2022/09/25 03:52:05;;;;;;;;;;;;;;;14.02;100.00;97498.47;5059830;28;19928;-84
2022/09/25 03:54:31;;;;;;;;;;;;;;;13.97;100.00;97497.75;5073594;28;20697;-83
2022/09/25 03:56:58;;;;;;;;;;;;;;;13.97;100.00;97495.06;5070131;28;19928;-82
2022/09/25 03:59:25;;;;;;;;;;;;;;;13.96;100.00;97494.28;5068453;28;19924;-83
2022/09/25 04:01:52;;;;;;;;;;;;;;;14.01;100.00;97490.72;5068000;28;19970;-83
2022/09/25 04:04:19;;;;;;;;;;;;;;;13.97;100.00;97479.78;5065957;28;20387;-85
2022/09/25 04:06:45;;;;;;;;;;;;;;;14.03;100.00;97477.78;5071064;28;20430;-84
2022/09/25 04:09:11;;;;;;;;;;;;;;;13.92;100.00;97479.06;5079636;28;19924;-84
2022/09/25 04:11:38;;;;;;;;;;;;;;;13.93;100.00;97481.44;5078342;28;19938;-83
2022/09/25 04:14:04;;;;;;;;;;;;;;;13.98;100.00;97478.69;5066628;28;19981;-85
2022/09/25 04:16:31;;;;;;;;;;;;;;;14.05;100.00;97478.28;5069433;28;19935;-83
2022/09/25 04:18:58;;;;;;;;;;;;;;;14.07;100.00;97476.91;5045720;28;19933;-84
2022/09/25 04:21:25;;;;;;;;;;;;;;;14.10;100.00;97474.72;5087938;28;20562;-83
2022/09/25 04:26:31;;;;;;;;;;;;;;;14.13;100.00;97466.06;5083835;28;20023;-84
2022/09/25 04:29:00;;;;;;;;;;;;;;;14.11;100.00;97469.06;5065826;28;19979;-83
2022/09/25 04:31:26;;;;;;;;;;;;;;;14.12;100.00;97467.16;5067524;28;19928;-82
2022/09/25 04:33:51;;;;;;;;;;;;;;;14.13;100.00;97466.06;5079218;28;19927;-83
2022/09/25 04:36:19;;;;;;;;;;;;;;;14.09;100.00;97473.91;5063135;28;19924;-83
2022/09/25 04:38:46;;;;;;;;;;;;;;;14.05;100.00;97475.59;5059339;28;19938;-84
2022/09/25 04:41:14;;;;;;;;;;;;;;;14.03;100.00;97467.84;5074341;28;19928;-81
2022/09/25 04:43:42;;;;;;;;;;;;;;;14.07;100.00;97474.22;5063397;28;19928;-85
2022/09/25 04:46:09;;;;;;;;;;;;;;;14.03;100.00;97467.06;5054502;28;19928;-83
2022/09/25 04:48:36;;;;;;;;;;;;;;;14.01;100.00;97469.25;5069828;28;20403;-84
2022/09/25 04:51:03;;;;;;;;;;;;;;;13.99;100.00;97471.41;5062317;28;19924;-86
2022/09/25 04:53:33;;;;;;;;;;;;;;;14.04;100.00;97477.50;5084651;28;19928;-83
2022/09/25 04:56:00;;;;;;;;;;;;;;;14.09;100.00;97473.91;5077426;28;19996;-83
2022/09/25 04:58:27;;;;;;;;;;;;;;;14.13;100.00;97471.44;5057493;28;19935;-85
2022/09/25 05:00:53;;;;;;;;;;;;;;;14.16;100.00;97468.97;5062615;28;19932;-84
2022/09/25 05:03:19;;;;;;;;;;;;;;;14.18;100.00;97468.66;5060672;28;20361;-84
2022/09/25 05:05:46;;;;;;;;;;;;;;;14.17;100.00;97467.88;5050973;28;19924;-83
2022/09/25 05:08:12;;;;;;;;;;;;;;;14.05;100.00;97476.41;5077508;28;19928;-83
2022/09/25 05:10:40;;;;;;;;;;;;;;;14.06;100.00;97467.25;5086870;28;19975;-84
2022/09/25 05:13:08;;;;;;;;;;;;;;;13.90;100.00;97460.56;5051296;28;20314;-84
2022/09/25 05:15:34;;;;;;;;;;;;;;;13.90;100.00;97460.56;5086043;28;19942;-84
2022/09/25 05:18:01;;;;;;;;;;;;;;;13.93;100.00;97465.34;5055223;28;19928;-84
2022/09/25 05:20:27;;;;;;;;;;;;;;;13.91;100.00;97458.69;5080140;28;19924;-83
2022/09/25 05:22:54;;;;;;;;;;;;;;;13.85;100.00;97460.66;5084746;28;19927;-84
2022/09/25 05:25:22;;;;;;;;;;;;;;;13.90;100.00;97462.44;5069474;28;20552;-82
2022/09/25 05:27:49;;;;;;;;;;;;;;;13.92;100.00;97465.66;5057802;28;19944;-84
2022/09/25 05:30:16;;;;;;;;;;;;;;;13.93;100.00;97451.91;5059686;28;19924;-84
2022/09/25 05:32:47;;;;;;;;;;;;;;;14.00;100.00;97462.28;5065245;28;20552;-84
2022/09/25 05:35:13;;;;;;;;;;;;;;;14.00;100.00;97468.44;5065386;28;19989;-84
2022/09/25 05:37:39;;;;;;;;;;;;;;;14.00;100.00;97462.28;5078815;28;19928;-84
2022/09/25 05:40:06;;;;;;;;;;;;;;;14.00;100.00;97470.31;5057715;28;19928;-84
2022/09/25 05:42:33;;;;;;;;;;;;;;;14.03;100.00;97465.16;5058908;28;19931;-84
2022/09/25 05:45:01;;;;;;;;;;;;;;;14.04;100.00;97479.41;5056910;28;19928;-86
2022/09/25 05:47:27;;;;;;;;;;;;;;;14.10;100.00;97474.72;5066941;28;19928;-83
2022/09/25 05:49:54;;;;;;;;;;;;;;;14.16;100.00;97481.59;5060803;28;20030;-83
2022/09/25 05:52:20;;;;;;;;;;;;;;;14.18;100.00;97479.41;5062912;28;19929;-82
2022/09/25 05:54:46;;;;;;;;;;;;;;;14.20;100.00;97483.41;5086630;28;20358;-84
2022/09/25 05:57:13;;;;;;;;;;;;;;;14.18;100.00;97471.34;5054718;28;19928;-84
2022/09/25 05:59:39;;;;;;;;;;;;;;;14.13;100.00;97477.63;5080586;28;19928;-85
2022/09/25 06:02:09;;;;;;;;;;;;;;;14.13;100.00;97471.44;5074408;28;19939;-85
2022/09/25 06:04:35;;;;;;;;;;;;;;;14.14;100.00;97483.78;5079561;28;19931;-83
2022/09/25 06:07:02;;;;;;;;;;;;;;;14.17;100.00;97484.00;5086999;28;19928;-83
2022/09/25 06:09:28;;;;;;;;;;;;;;;14.22;100.00;97491.16;5076975;28;20554;-84
2022/09/25 06:11:54;;;;;;;;;;;;;;;14.23;100.00;97482.81;5073455;28;19931;-83
2022/09/25 06:14:21;;;;;;;;;;;;;;;14.26;100.00;97479.53;5048357;28;20621;-85
2022/09/25 06:16:48;;;;;;;;;;;;;;;14.26;100.00;97478.72;5066244;28;19928;-83
2022/09/25 06:19:17;;;;;;;;;;;;;;;14.13;100.00;97479.50;5072709;28;19986;-83
2022/09/25 06:21:43;;;;;;;;;;;;;;;14.02;100.00;97471.63;5059529;28;19932;-83
2022/09/25 06:24:10;;;;;;;;;;;;;;;14.00;100.00;97471.13;5085537;28;19934;-83
2022/09/25 06:26:37;;;;;;;;;;;;;;;14.04;100.00;97472.13;5085165;28;19924;-84
2022/09/25 06:29:04;;;;;;;;;;;;;;;14.00;100.00;97473.00;5062482;28;19931;-84
2022/09/25 06:31:30;;;;;;;;;;;;;;;13.94;100.00;97468.81;5081685;28;19932;-84
2022/09/25 06:33:58;;;;;;;;;;;;;;;13.96;100.00;97467.44;5044520;28;21384;-83
2022/09/25 06:36:26;;;;;;;;;;;;;;;13.93;100.00;97476.06;5069680;28;20404;-83
2022/09/25 06:38:53;;;;;;;;;;;;;;;13.94;100.00;97469.63;5065115;28;20023;-82
2022/09/25 06:41:20;;;;;;;;;;;;;;;14.04;100.00;97465.97;5064130;28;20053;-83
2022/09/25 06:43:48;;;;;;;;;;;;;;;13.92;100.00;97461.09;5060608;28;19924;-84
2022/09/25 06:46:14;;;;;;;;;;;;;;;13.84;100.00;97453.69;5067299;28;20027;-84
2022/09/25 06:48:41;;;;;;;;;;;;;;;13.80;100.00;97450.00;5078692;28;19924;-83
2022/09/25 06:51:08;;;;;;;;;;;;;;;13.70;100.00;97446.69;5049705;28;19982;-84
2022/09/25 06:53:35;;;;;;;;;;;;;;;13.64;100.00;97459.41;5061752;28;19931;-84
2022/09/25 06:56:02;;;;;;;;;;;;;;;13.63;100.00;97457.00;5070650;28;19943;-84
2022/09/25 06:58:29;;;;;;;;;;;;;;;13.75;100.00;97449.28;5076909;28;19958;-84
2022/09/25 07:00:56;;;;;;;;;;;;;;;13.79;100.00;97452.97;5070051;28;20422;-82
2022/09/25 07:06:07;;;;;;;;;;;;;;;13.77;100.00;97460.53;5075567;28;19924;-84
2022/09/25 07:08:34;;;;;;;;;;;;;;;13.87;100.00;97458.47;5072604;28;19924;-84
2022/09/25 07:11:01;;;;;;;;;;;;;;;13.83;100.00;97452.09;5090797;28;19931;-83
2022/09/25 07:13:29;;;;;;;;;;;;;;;13.88;100.00;97457.38;5077678;28;20599;-83
2022/09/25 07:15:56;;;;;;;;;;;;;;;13.86;100.00;97464.94;5081788;28;20379;-84
2022/09/25 07:18:23;;;;;;;;;;;;;;;13.90;100.00;97460.56;5068378;28;19928;-85
2022/09/25 07:20:49;;;;;;;;;;;;;;;13.92;100.00;97465.66;5072792;28;19925;-83
2022/09/25 07:23:16;;;;;;;;;;;;;;;13.93;100.00;97473.38;5070738;28;19924;-84
2022/09/25 07:25:43;;;;;;;;;;;;;;;13.89;100.00;97466.25;5068635;28;19925;-84
2022/09/25 07:28:11;;;;;;;;;;;;;;;13.92;100.00;97465.66;5077451;28;19934;-84
2022/09/25 07:30:38;;;;;;;;;;;;;;;13.89;100.00;97461.66;5082560;28;19933;-84
2022/09/25 07:33:04;;;;;;;;;;;;;;;13.92;100.00;97466.44;5100904;28;19931;-84
2022/09/25 07:35:30;;;;;;;;;;;;;;;13.94;100.00;97464.25;5082880;28;19962;-84
2022/09/25 07:37:57;;;;;;;;;;;;;;;13.89;100.00;97464.34;5075939;28;19924;-82
2022/09/25 07:40:25;;;;;;;;;;;;;;;13.89;100.00;97467.03;5063042;28;19928;-83
2022/09/25 07:42:51;;;;;;;;;;;;;;;13.85;100.00;97466.03;5059267;28;19928;-83
2022/09/25 07:45:19;;;;;;;;;;;;;;;13.88;100.00;97459.25;5053443;28;19938;-83
2022/09/25 07:47:45;;;;;;;;;;;;;;;13.94;100.00;97474.19;5076673;28;19931;-84
2022/09/25 07:50:11;;;;;;;;;;;;;;;14.02;100.00;97474.31;5075863;28;20392;-83
2022/09/25 07:52:38;;;;;;;;;;;;;;;14.11;100.00;97479.00;5082883;28;19928;-84
2022/09/25 07:55:05;;;;;;;;;;;;;;;14.04;100.00;97474.03;5076545;28;19932;-84
2022/09/25 07:57:32;;;;;;;;;;;;;;;13.98;100.00;97484.06;5063608;28;19932;-83
2022/09/25 07:59:59;;;;;;;;;;;;;;;13.93;100.00;97486.00;5065917;28;19961;-83
2022/09/25 08:02:26;;;;;;;;;;;;;;;13.94;100.00;97488.41;5076322;28;20525;-84
2022/09/25 08:04:53;;;;;;;;;;;;;;;13.96;100.00;97490.78;5077644;28;19928;-84
2022/09/25 08:07:19;;;;;;;;;;;;;;;14.06;100.00;97488.75;5092777;28;19971;-84
2022/09/25 08:09:46;;;;;;;;;;;;;;;14.18;100.00;97488.25;5084157;28;19928;-84
2022/09/25 08:12:12;;;;;;;;;;;;;;;14.30;100.00;97488.56;5072914;28;20387;-83
2022/09/25 08:14:40;;;;;;;;;;;;;;;14.17;100.00;97489.38;5080150;28;19994;-84
2022/09/25 08:17:07;;;;;;;;;;;;;;;14.17;100.00;97489.38;5071965;28;19950;-83
2022/09/25 08:19:34;;;;;;;;;;;;;;;14.17;100.00;97489.38;5083349;28;19927;-83
2022/09/25 08:22:00;;;;;;;;;;;;;;;14.19;100.00;97481.00;5079723;28;19958;-83
2022/09/25 08:24:27;;;;;;;;;;;;;;;14.26;100.00;97486.78;5079168;28;19939;-83
2022/09/25 08:26:53;;;;;;;;;;;;;;;14.30;100.00;97493.16;5067664;28;19936;-83
2022/09/25 08:29:20;;;;;;;;;;;;;;;14.34;100.00;97494.97;5052316;28;19931;-83
2022/09/25 08:31:46;;;;;;;;;;;;;;;14.33;100.00;97495.25;5074638;28;19975;-85
2022/09/25 08:34:15;;;;;;;;;;;;;;;14.16;100.00;97497.72;5078741;28;19936;-84
2022/09/25 08:36:42;;;;;;;;;;;;;;;13.97;100.00;97490.50;5053623;28;20307;-85
2022/09/25 08:39:09;;;;;;;;;;;;;;;14.01;100.00;97490.72;5067969;28;20005;-85
2022/09/25 08:41:42;;;;;;;;;;;;;;;14.13;100.00;97487.56;5066382;28;19924;-82
2022/09/25 08:44:16;;;;;;;;;;;;;;;14.32;100.00;97480.22;5066076;28;19932;-84
2022/09/25 08:49:30;;;;;;;;;;;;;;;14.30;100.00;97472.47;5066399;28;19925;-82
2022/09/25 08:52:02;;;;;;;;;;;;;;;14.38;100.00;97476.38;5072030;28;19928;-83
2022/09/25 08:54:30;;;;;;;;;;;;;;;14.33;100.00;97471.09;5066850;28;20442;-83
2022/09/25 08:56:58;;;;;;;;;;;;;;;14.46;100.00;97475.69;5073458;28;19997;-84
2022/09/25 08:59:27;;;;;;;;;;;;;;;14.44;100.00;97475.19;5064444;28;19928;-83
2022/09/25 09:01:56;;;;;;;;;;;;;;;14.50;100.00;97472.13;5078836;28;19950;-86
2022/09/25 09:04:26;;;;;;;;;;;;;;;14.46;100.00;97473.78;5079352;28;19932;-83
2022/09/25 09:06:54;;;;;;;;;;;;;;;14.46;100.00;97473.00;5079067;28;19935;-82
2022/09/25 09:09:23;;;;;;;;;;;;;;;14.64;100.00;97477.47;5081417;28;19924;-84
2022/09/25 09:11:52;;;;;;;;;;;;;;;14.57;100.00;97469.03;5062596;28;19950;-85
2022/09/25 09:14:19;;;;;;;;;;;;;;;14.59;100.00;97473.00;5083745;28;20528;-84
2022/09/25 09:16:50;;;;;;;;;;;;;;;14.71;100.00;97467.13;5073685;28;20639;-84
2022/09/25 09:19:16;;;;;;;;;;;;;;;14.84;100.00;97471.69;5087322;28;19930;-84
2022/09/25 09:21:45;;;;;;;;;;;;;;;14.80;100.00;97461.84;5081686;28;20026;-84
2022/09/25 09:24:15;;;;;;;;;;;;;;;14.80;100.00;97468.00;5073947;28;19939;-83
2022/09/25 09:27:05;;;;;;;;;;;;;;;14.80;100.00;97456.47;5091116;28;19935;-83
2022/09/25 09:29:41;;;;;;;;;;;;;;;14.87;100.00;97467.59;5078172;28;19932;-84
2022/09/25 09:32:18;;;;;;;;;;;;;;;14.79;100.00;97462.94;5093290;28;19938;-84
2022/09/25 09:34:56;;;;;;;;;;;;;;;14.83;100.00;97464.72;5069167;28;19932;-83
2022/09/25 09:37:24;;;;;;;;;;;;;;;14.76;100.00;97456.25;5072386;28;20023;-84
2022/09/25 09:39:57;;;;;;;;;;;;;;;14.74;100.00;97466.53;5077784;28;19993;-84
2022/09/25 09:42:37;;;;;;;;;;;;;;;14.74;100.00;97463.84;5065189;28;20342;-84
2022/09/25 09:45:08;;;;;;;;;;;;;;;14.64;100.00;97460.56;5067735;28;19935;-84
2022/09/25 09:47:40;;;;;;;;;;;;;;;14.69;100.00;97461.25;5070256;28;19929;-83
2022/09/25 09:50:26;;;;;;;;;;;;;;;14.80;100.00;97457.25;5064779;28;20404;-84
2022/09/25 09:52:56;;;;;;;;;;;;;;;14.79;100.00;97458.34;5075777;28;19930;-83
2022/09/25 09:55:25;;;;;;;;;;;;;;;14.85;100.00;97457.16;5072613;28;19931;-83
2022/09/25 09:57:54;;;;;;;;;;;;;;;14.78;100.00;97454.09;5064760;28;19951;-83
2022/09/25 10:00:21;;;;;;;;;;;;;;;14.78;100.00;97451.41;5071032;28;19928;-83
2022/09/25 10:02:50;;;;;;;;;;;;;;;14.82;100.00;97448.91;5072012;28;19995;-83
2022/09/25 10:05:19;;;;;;;;;;;;;;;14.90;100.00;97448.97;5093047;28;19931;-82
2022/09/25 10:07:46;;;;;;;;;;;;;;;14.98;100.00;97448.25;5080543;28;20457;-86
2022/09/25 10:10:14;;;;;;;;;;;;;;;14.88;100.00;97439.63;5055041;28;20012;-82
2022/09/25 10:12:42;;;;;;;;;;;;;;;15.08;100.00;97436.50;5058677;28;19952;-83
2022/09/25 10:15:15;;;;;;;;;;;;;;;15.08;100.00;97433.78;5077864;28;19924;-83
2022/09/25 10:17:42;;;;;;;;;;;;;;;15.12;100.00;97435.59;5070406;28;19928;-83
2022/09/25 10:20:14;;;;;;;;;;;;;;;15.07;100.00;97438.38;5054882;28;19934;-83
2022/09/25 10:22:44;;;;;;;;;;;;;;;15.10;100.00;97443.16;5070972;28;19924;-84
2022/09/25 10:25:10;;;;;;;;;;;;;;;15.07;100.00;97438.38;5065256;28;20021;-85
2022/09/25 10:27:40;;;;;;;;;;;;;;;15.08;100.00;97423.84;5047974;28;20400;-84
2022/09/25 10:30:19;;;;;;;;;;;;;;;15.32;100.00;97431.63;5065968;28;19928;-87
2022/09/25 10:32:46;;;;;;;;;;;;;;;15.33;100.00;97432.44;5073175;28;20395;-84
2022/09/25 10:35:14;;;;;;;;;;;;;;;15.14;100.00;97422.63;5069905;28;19935;-83
2022/09/25 10:37:40;;;;;;;;;;;;;;;15.13;100.00;97431.78;5046251;28;20379;-85
2022/09/25 10:40:21;;;;;;;;;;;;;;;15.17;100.00;97429.28;5074289;28;19924;-84
2022/09/25 10:42:47;;;;;;;;;;;;;;;15.08;100.00;97429.22;5050671;28;19925;-83
2022/09/25 10:45:29;;;;;;;;;;;;;;;15.23;100.00;97424.59;5054851;28;19939;-84
2022/09/25 10:50:41;;;;;;;;;;;;;;;15.20;100.00;97431.38;5060212;28;19947;-86
2022/09/25 10:53:25;;;;;;;;;;;;;;;15.26;100.00;97429.34;5084243;28;19931;-86
2022/09/25 10:55:54;;;;;;;;;;;;;;;15.16;100.00;97425.03;5089627;28;20583;-86
2022/09/25 10:58:23;;;;;;;;;;;;;;;15.22;100.00;97428.38;5068849;28;19935;-83
2022/09/25 11:00:54;;;;;;;;;;;;;;;15.35;100.00;97433.69;5069166;28;20007;-84
2022/09/25 11:03:23;;;;;;;;;;;;;;;15.35;100.00;97432.94;5081191;28;19936;-85
2022/09/25 11:05:51;;;;;;;;;;;;;;;15.61;100.00;97436.63;5076644;28;19925;-84
2022/09/25 11:08:17;;;;;;;;;;;;;;;15.63;100.00;97419.06;5057795;28;19979;-86
2022/09/25 11:10:49;;;;;;;;;;;;;;;15.69;100.00;97419.72;5084530;28;19932;-84
2022/09/25 11:13:19;;;;;;;;;;;;;;;15.47;100.00;97427.81;5086703;28;19929;-87
2022/09/25 11:15:48;;;;;;;;;;;;;;;15.66;100.00;97418.44;5081728;28;19997;-86
2022/09/25 11:22:12;;;;;;;;;;;;;;;15.64;100.00;97427.94;5099035;28;19980;-62
2022/09/25 11:24:45;;;;;;;;;;;;;;;15.80;100.00;97431.84;5087862;28;19959;-62
2022/09/25 11:27:14;;;;;;;;;;;;;;;15.88;100.00;97425.69;5096586;28;19951;-62
2022/09/25 11:29:46;;;;;;;;;;;;;;;15.67;100.00;97424.63;5095831;28;19925;-65
2022/09/25 11:32:19;;;;;;;;;;;;;;;15.44;100.00;97421.09;5098252;28;19991;-62
2022/09/25 11:35:05;;;;;;;;;;;;;;;15.62;100.00;97416.69;5098884;28;19931;-62
2022/09/25 11:37:36;;;;;;;;;;;;;;;15.40;100.00;97425.53;5089162;28;20091;-62
2022/09/25 11:42:51;;;;;;;;;;;;;;;15.57;100.00;97419.50;5098687;28;20737;-62
2022/09/25 11:45:20;;;;;;;;;;;;;;;15.42;100.00;97417.13;5095591;28;20050;-62
2022/09/25 11:47:55;;;;;;;;;;;;;;;15.54;100.00;97417.41;5095163;28;19925;-63
2022/09/25 11:50:27;;;;;;;;;;;;;;;15.41;100.00;97415.56;5087148;28;19992;-62
2022/09/25 11:53:00;;;;;;;;;;;;;;;15.40;100.00;97413.97;5102261;28;19931;-63
2022/09/25 11:55:40;;;;;;;;;;;;;;;15.58;100.00;97411.13;5087885;28;20007;-62
2022/09/25 11:58:15;;;;;;;;;;;;;;;15.43;100.00;97416.03;5096851;28;19939;-63
2022/09/25 12:00:48;;;;;;;;;;;;;;;15.49;100.00;97412.97;5098604;28;19924;-62
2022/09/25 12:03:34;;;;;;;;;;;;;;;15.44;100.00;97418.41;5095550;28;19929;-63
2022/09/25 12:06:13;;;;;;;;;;;;;;;15.46;100.00;97413.53;5095674;28;19991;-62
2022/09/25 12:08:49;;;;;;;;;;;;;;;15.43;100.00;97413.34;5098508;28;20015;-63
2022/09/25 12:11:23;;;;;;;;;;;;;;;15.56;100.00;97396.38;5095255;28;19925;-62
2022/09/25 12:13:56;;;;;;;;;;;;;;;15.63;100.00;97400.22;5094543;28;19929;-63
2022/09/25 12:16:25;;;;;;;;;;;;;;;15.55;100.00;97394.78;5086819;28;19966;-63
2022/09/25 12:18:59;;;;;;;;;;;;;;;15.52;100.00;97395.41;5094772;28;19988;-63
2022/09/25 12:21:33;;;;;;;;;;;;;;;15.60;100.00;97397.34;5086871;28;19925;-63
2022/09/25 12:24:04;;;;;;;;;;;;;;;15.60;100.00;97386.56;5102480;28;20045;-62
2022/09/25 12:26:34;;;;;;;;;;;;;;;15.73;100.00;97384.91;5094597;28;19992;-62
2022/09/25 12:29:05;;;;;;;;;;;;;;;15.58;100.00;97378.81;5095144;28;19949;-62
2022/09/25 12:31:38;;;;;;;;;;;;;;;15.64;100.00;97384.88;5093950;28;19925;-62
2022/09/25 12:34:07;;;;;;;;;;;;;;;15.61;100.00;97382.78;5082874;28;19939;-63
2022/09/25 12:36:36;;;;;;;;;;;;;;;15.89;100.00;97376.13;5080732;28;20015;-62
2022/09/25 12:39:11;;;;;;;;;;;;;;;15.74;100.00;97376.53;5081705;28;19988;-62
2022/09/25 12:41:41;;;;;;;;;;;;;;;15.67;100.00;97376.19;5084194;28;19986;-63
2022/09/25 12:44:11;;;;;;;;;;;;;;;15.62;100.00;97362.84;5081140;28;19931;-62
2022/09/25 12:46:42;;;;;;;;;;;;;;;15.62;100.00;97352.09;5080803;28;19931;-62
2022/09/25 12:49:14;;;;;;;;;;;;;;;15.94;100.00;97359.84;5082451;28;20463;-63
2022/09/25 12:51:42;;;;;;;;;;;;;;;16.06;100.00;97351.97;5083961;28;20023;-61
2022/09/25 12:54:15;;;;;;;;;;;;;;;15.81;100.00;97349.97;5088963;28;20018;-62
2022/09/25 12:56:44;;;;;;;;;;;;;;;15.97;100.00;97355.72;5080409;28;19931;-62
2022/09/25 12:59:12;;;;;;;;;;;;;;;15.87;100.00;97356.03;5082424;28;19931;-63
2022/09/25 13:01:44;;;;;;;;;;;;;;;15.69;100.00;97341.66;5083876;28;19928;-63
2022/09/25 13:04:18;;;;;;;;;;;;;;;15.84;100.00;97351.25;5081526;28;19931;-61
2022/09/25 13:06:47;;;;;;;;;;;;;;;15.82;100.00;97343.47;5080288;28;19933;-62